KBPT/BPT METAR and TAF weather

Enter ICAO airport designator
Station Type Date Time Source
KBPT METAR 2022/05/24 12:53 UTC NOAA

KBPT 241253Z 10006KT 10SM BKN021 BKN042 25/23 A2986 RMK AO2 SLP110 T02500233


Station Type Date Time Source
KBPT Decoded METAR 2022/05/24 12:53 UTC NOAA

SOUTHEAST TEXAS RGNL AIRPORT, TX, United States (KBPT) 29-95N 094-08W 5M
May 24, 2022 - 08:53 AM EDT / 2022.05.24 1253 UTC
Wind: from the E (100 degrees) at 7 MPH (6 KT):0
Visibility: 10 mile(s):0
Sky conditions: mostly cloudy
Temperature: 77.0 F (25.0 C)
Dew Point: 73.9 F (23.3 C)
Relative Humidity: 90%
Pressure (altimeter): 29.86 in. Hg (1011 hPa)
ob: KBPT 241253Z 10006KT 10SM BKN021 BKN042 25/23 A2986 RMK AO2 SLP110 T02500233
cycle: 13

Station Type Date Time Source
KBPT TAF 2022/05/24 12:34 UTC NOAA

TAF KBPT 241132Z 2412/2512 09011KT P6SM SCT010 OVC025
TEMPO 2412/2414 BKN009
FM241500 17012G18KT P6SM VCTS BKN035CB
FM241700 15014G19KT 6SM TSRA OVC035CB
FM242300 16014G22KT P6SM BKN120
FM250900 17015G22KT 5SM TSRA OVC015CB

Example: see airport list